Startpagina
METAR-TAF:

METAR-TAF

Vliegvelden :

Honiara International Airport

Honiara, Guadalcanal, Salomonseilanden

breedte: 09-25S, lengte: 160-03E, hoogte: 8 m

Actueel weer

Dit bericht is 56 minuten geleden gemaakt, om 12:00 UTC
Wind 2 kt uit het oostzuidoosten
Temperatuur 24°C
Vochtigheid 100%
Druk 1012 hPa
Zicht 10 km of meer
Weinig wolken op 1400 ft

METAR: AGGH 211200Z 11002KT 9999 FEW014 24/24 Q1012

Tijdstip: 23:56 (12:56 UTC)

Verwachting

Dit bericht is 1 uur en het 46 minuten geleden gemaakt, om 11:10 UTC
Verwachting geldig van 21 om 12 UTC tot 22 om 12 UTC
Wind 6 kt uit het zuiden
Zicht 10 km of meer
Weinig wolken op 1500 ft
Van 21 om 2300 UTC
Wind 10 kt uit het oosten
Zicht 10 km of meer
Verspreide wolken op 1900 ft
Kans 40%
tussen IN en het TE UTC
Zicht: 1011 m
Gebroken wolken op 1600 ft
Weinig wolken op 1700 ft, Cumulonimbus.

TAF: AGGH 211110Z 2112/2212 18006KT 9999 FEW015 FM212300 09010KT 9999 SCT019 PROB40 INTER 2112/2118 5000 TSSH BKN016 FEW017CB T 24 23 23 26 Q 1012 1010 1009 1011

Waarnemingen en weersverwachtingen van meer dan 4000 vliegvelden (METAR en TAF).

De beschikbare stations zijn de gele en rode punten op de kaart.

Ga met uw muis naar het station om de naam te zien.

Klik dan om waarnemingen en weersverwachtingen te zien.

kaart wijzigen: klik op de groene knoppen met een zwart kruis om in te zoomen, op de groene knop met een streepje om uit te zoomen of op de groene pijlen voor aangrenzende kaarten.


METAR-TAF: